sensor_id;sensor_type;location;lat;lon;timestamp;temperature;humidity
74617;DHT22;63123;50.906;4.198;2023-04-03T00:01:30;16.70;49.40
74617;DHT22;63123;50.906;4.198;2023-04-03T00:03:56;16.70;49.50
74617;DHT22;63123;50.906;4.198;2023-04-03T00:06:22;16.70;49.50
74617;DHT22;63123;50.906;4.198;2023-04-03T00:08:48;16.70;49.60
74617;DHT22;63123;50.906;4.198;2023-04-03T00:11:14;16.70;49.70
74617;DHT22;63123;50.906;4.198;2023-04-03T00:13:41;16.70;49.70
74617;DHT22;63123;50.906;4.198;2023-04-03T00:16:07;16.80;49.80
74617;DHT22;63123;50.906;4.198;2023-04-03T00:18:33;16.70;49.60
74617;DHT22;63123;50.906;4.198;2023-04-03T00:20:59;16.70;49.30
74617;DHT22;63123;50.906;4.198;2023-04-03T00:23:25;16.70;49.50
74617;DHT22;63123;50.906;4.198;2023-04-03T00:25:51;16.70;49.20
74617;DHT22;63123;50.906;4.198;2023-04-03T00:28:17;16.70;49.20
74617;DHT22;63123;50.906;4.198;2023-04-03T00:30:43;16.70;49.10
74617;DHT22;63123;50.906;4.198;2023-04-03T00:33:12;16.70;49.10
74617;DHT22;63123;50.906;4.198;2023-04-03T00:35:38;16.70;49.10
74617;DHT22;63123;50.906;4.198;2023-04-03T00:38:03;16.80;49.00
74617;DHT22;63123;50.906;4.198;2023-04-03T00:40:34;16.70;49.00
74617;DHT22;63123;50.906;4.198;2023-04-03T00:43:00;16.70;49.00
74617;DHT22;63123;50.906;4.198;2023-04-03T00:45:33;16.70;49.10
74617;DHT22;63123;50.906;4.198;2023-04-03T00:48:00;16.70;49.10
74617;DHT22;63123;50.906;4.198;2023-04-03T00:50:28;16.70;49.10
74617;DHT22;63123;50.906;4.198;2023-04-03T00:52:55;16.70;49.10
74617;DHT22;63123;50.906;4.198;2023-04-03T00:55:21;16.70;49.20
74617;DHT22;63123;50.906;4.198;2023-04-03T00:57:47;16.70;49.00
74617;DHT22;63123;50.906;4.198;2023-04-03T01:00:17;16.70;49.20
74617;DHT22;63123;50.906;4.198;2023-04-03T01:02:43;16.70;49.10
74617;DHT22;63123;50.906;4.198;2023-04-03T01:05:09;16.70;49.10
74617;DHT22;63123;50.906;4.198;2023-04-03T01:07:35;16.70;49.10
74617;DHT22;63123;50.906;4.198;2023-04-03T01:10:06;16.70;49.10
74617;DHT22;63123;50.906;4.198;2023-04-03T01:12:37;16.70;49.10
74617;DHT22;63123;50.906;4.198;2023-04-03T01:15:24;16.70;49.10
74617;DHT22;63123;50.906;4.198;2023-04-03T01:17:53;16.80;48.90
74617;DHT22;63123;50.906;4.198;2023-04-03T01:25:56;16.70;48.50
74617;DHT22;63123;50.906;4.198;2023-04-03T01:28:28;16.70;49.10
74617;DHT22;63123;50.906;4.198;2023-04-03T01:31:19;16.70;49.10
74617;DHT22;63123;50.906;4.198;2023-04-03T01:33:47;16.70;49.00
74617;DHT22;63123;50.906;4.198;2023-04-03T01:36:21;16.70;48.90
74617;DHT22;63123;50.906;4.198;2023-04-03T01:38:48;16.70;48.80
74617;DHT22;63123;50.906;4.198;2023-04-03T01:41:14;16.70;48.70
74617;DHT22;63123;50.906;4.198;2023-04-03T01:43:40;16.70;48.70
74617;DHT22;63123;50.906;4.198;2023-04-03T01:46:06;16.70;48.70
74617;DHT22;63123;50.906;4.198;2023-04-03T01:48:33;16.70;48.60
74617;DHT22;63123;50.906;4.198;2023-04-03T01:50:59;16.70;48.60
74617;DHT22;63123;50.906;4.198;2023-04-03T01:53:24;16.70;48.50
74617;DHT22;63123;50.906;4.198;2023-04-03T01:55:50;16.70;48.70
74617;DHT22;63123;50.906;4.198;2023-04-03T01:58:16;16.70;48.60
74617;DHT22;63123;50.906;4.198;2023-04-03T02:00:42;16.70;49.20
74617;DHT22;63123;50.906;4.198;2023-04-03T02:03:07;16.70;48.70
74617;DHT22;63123;50.906;4.198;2023-04-03T02:05:33;16.70;48.40
74617;DHT22;63123;50.906;4.198;2023-04-03T02:07:59;16.70;48.50
74617;DHT22;63123;50.906;4.198;2023-04-03T02:10:25;16.70;48.60
74617;DHT22;63123;50.906;4.198;2023-04-03T02:12:51;16.70;48.60
74617;DHT22;63123;50.906;4.198;2023-04-03T02:15:17;16.70;48.60
74617;DHT22;63123;50.906;4.198;2023-04-03T02:17:42;16.70;48.70
74617;DHT22;63123;50.906;4.198;2023-04-03T02:20:08;16.70;48.60
74617;DHT22;63123;50.906;4.198;2023-04-03T02:22:34;16.70;48.50
74617;DHT22;63123;50.906;4.198;2023-04-03T02:25:00;16.70;48.70
74617;DHT22;63123;50.906;4.198;2023-04-03T02:27:26;16.70;48.60
74617;DHT22;63123;50.906;4.198;2023-04-03T02:29:52;16.70;48.30
74617;DHT22;63123;50.906;4.198;2023-04-03T02:32:18;16.70;48.50
74617;DHT22;63123;50.906;4.198;2023-04-03T02:34:43;16.70;48.40
74617;DHT22;63123;50.906;4.198;2023-04-03T02:37:09;16.70;48.40
74617;DHT22;63123;50.906;4.198;2023-04-03T02:39:34;16.70;48.50
74617;DHT22;63123;50.906;4.198;2023-04-03T02:42:00;16.70;48.60
74617;DHT22;63123;50.906;4.198;2023-04-03T02:44:26;16.70;48.40
74617;DHT22;63123;50.906;4.198;2023-04-03T02:46:51;16.70;48.50
74617;DHT22;63123;50.906;4.198;2023-04-03T02:49:17;16.70;48.40
74617;DHT22;63123;50.906;4.198;2023-04-03T02:51:43;16.70;48.50
74617;DHT22;63123;50.906;4.198;2023-04-03T02:54:08;16.70;48.40
74617;DHT22;63123;50.906;4.198;2023-04-03T02:56:34;16.70;48.40
74617;DHT22;63123;50.906;4.198;2023-04-03T02:59:00;16.70;48.40
74617;DHT22;63123;50.906;4.198;2023-04-03T03:01:25;16.70;48.40
74617;DHT22;63123;50.906;4.198;2023-04-03T03:03:54;16.70;48.20
74617;DHT22;63123;50.906;4.198;2023-04-03T03:06:20;16.70;48.30
74617;DHT22;63123;50.906;4.198;2023-04-03T03:08:45;16.70;48.30
74617;DHT22;63123;50.906;4.198;2023-04-03T03:11:11;16.70;48.20
74617;DHT22;63123;50.906;4.198;2023-04-03T03:13:37;16.70;48.00
74617;DHT22;63123;50.906;4.198;2023-04-03T03:16:03;16.70;48.00
74617;DHT22;63123;50.906;4.198;2023-04-03T03:18:28;16.70;48.10
74617;DHT22;63123;50.906;4.198;2023-04-03T03:20:56;16.70;48.10
74617;DHT22;63123;50.906;4.198;2023-04-03T03:23:23;16.70;48.00
74617;DHT22;63123;50.906;4.198;2023-04-03T03:25:54;16.70;48.20
74617;DHT22;63123;50.906;4.198;2023-04-03T03:28:20;16.70;48.30
74617;DHT22;63123;50.906;4.198;2023-04-03T03:30:46;16.70;48.20
74617;DHT22;63123;50.906;4.198;2023-04-03T03:33:12;16.70;48.20
74617;DHT22;63123;50.906;4.198;2023-04-03T03:35:37;16.70;48.10
74617;DHT22;63123;50.906;4.198;2023-04-03T03:38:03;16.70;48.10
74617;DHT22;63123;50.906;4.198;2023-04-03T03:40:28;16.70;48.10
74617;DHT22;63123;50.906;4.198;2023-04-03T03:42:54;16.70;47.90
74617;DHT22;63123;50.906;4.198;2023-04-03T03:45:20;16.70;47.90
74617;DHT22;63123;50.906;4.198;2023-04-03T03:47:45;16.70;48.00
74617;DHT22;63123;50.906;4.198;2023-04-03T03:50:11;16.70;48.00
74617;DHT22;63123;50.906;4.198;2023-04-03T03:52:37;16.70;47.90
74617;DHT22;63123;50.906;4.198;2023-04-03T03:55:04;16.70;47.80
74617;DHT22;63123;50.906;4.198;2023-04-03T03:57:30;16.70;47.90
74617;DHT22;63123;50.906;4.198;2023-04-03T03:59:55;16.70;48.00
74617;DHT22;63123;50.906;4.198;2023-04-03T04:02:21;16.70;47.90
74617;DHT22;63123;50.906;4.198;2023-04-03T04:04:47;16.70;47.80
74617;DHT22;63123;50.906;4.198;2023-04-03T04:07:12;16.70;47.80
74617;DHT22;63123;50.906;4.198;2023-04-03T04:09:38;16.70;47.70
74617;DHT22;63123;50.906;4.198;2023-04-03T04:12:04;16.70;47.50
74617;DHT22;63123;50.906;4.198;2023-04-03T04:14:29;16.70;47.90
74617;DHT22;63123;50.906;4.198;2023-04-03T04:16:55;16.70;48.10
74617;DHT22;63123;50.906;4.198;2023-04-03T04:19:20;16.70;48.20
74617;DHT22;63123;50.906;4.198;2023-04-03T04:21:46;16.70;47.90
74617;DHT22;63123;50.906;4.198;2023-04-03T04:24:12;16.70;47.70
74617;DHT22;63123;50.906;4.198;2023-04-03T04:26:37;16.70;47.70
74617;DHT22;63123;50.906;4.198;2023-04-03T04:29:03;16.70;47.80
74617;DHT22;63123;50.906;4.198;2023-04-03T04:31:28;16.70;47.70
74617;DHT22;63123;50.906;4.198;2023-04-03T04:33:54;16.70;47.60
74617;DHT22;63123;50.906;4.198;2023-04-03T04:36:20;16.70;47.70
74617;DHT22;63123;50.906;4.198;2023-04-03T04:38:45;16.70;47.70
74617;DHT22;63123;50.906;4.198;2023-04-03T04:41:11;16.70;47.60
74617;DHT22;63123;50.906;4.198;2023-04-03T04:43:37;16.70;47.70
74617;DHT22;63123;50.906;4.198;2023-04-03T04:46:05;16.70;47.60
74617;DHT22;63123;50.906;4.198;2023-04-03T04:48:31;16.70;47.60
74617;DHT22;63123;50.906;4.198;2023-04-03T04:50:56;16.70;47.80
74617;DHT22;63123;50.906;4.198;2023-04-03T04:53:22;16.70;47.90
74617;DHT22;63123;50.906;4.198;2023-04-03T04:55:47;16.70;47.60
74617;DHT22;63123;50.906;4.198;2023-04-03T04:58:13;16.70;47.70
74617;DHT22;63123;50.906;4.198;2023-04-03T05:00:39;16.70;47.70
74617;DHT22;63123;50.906;4.198;2023-04-03T05:03:05;16.70;47.60
74617;DHT22;63123;50.906;4.198;2023-04-03T05:05:30;16.70;47.60
74617;DHT22;63123;50.906;4.198;2023-04-03T05:07:56;16.70;47.70
74617;DHT22;63123;50.906;4.198;2023-04-03T05:10:22;16.70;47.70
74617;DHT22;63123;50.906;4.198;2023-04-03T05:12:47;16.70;47.60
74617;DHT22;63123;50.906;4.198;2023-04-03T05:15:13;16.70;47.60
74617;DHT22;63123;50.906;4.198;2023-04-03T05:17:38;16.70;47.50
74617;DHT22;63123;50.906;4.198;2023-04-03T05:20:05;16.70;47.50
74617;DHT22;63123;50.906;4.198;2023-04-03T05:22:31;16.70;47.50
74617;DHT22;63123;50.906;4.198;2023-04-03T05:24:56;16.70;47.70
74617;DHT22;63123;50.906;4.198;2023-04-03T05:27:22;16.70;47.60
74617;DHT22;63123;50.906;4.198;2023-04-03T05:29:49;16.70;47.70
74617;DHT22;63123;50.906;4.198;2023-04-03T05:32:15;16.70;47.70
74617;DHT22;63123;50.906;4.198;2023-04-03T05:34:41;16.70;47.50
74617;DHT22;63123;50.906;4.198;2023-04-03T05:37:07;16.70;47.40
74617;DHT22;63123;50.906;4.198;2023-04-03T05:39:33;16.70;47.60
74617;DHT22;63123;50.906;4.198;2023-04-03T05:41:59;16.70;47.70
74617;DHT22;63123;50.906;4.198;2023-04-03T05:44:25;16.70;47.80
74617;DHT22;63123;50.906;4.198;2023-04-03T05:46:50;16.70;48.10
74617;DHT22;63123;50.906;4.198;2023-04-03T05:49:16;16.70;47.80
74617;DHT22;63123;50.906;4.198;2023-04-03T05:51:41;16.70;47.70
74617;DHT22;63123;50.906;4.198;2023-04-03T05:54:20;16.70;47.60
74617;DHT22;63123;50.906;4.198;2023-04-03T05:56:49;16.70;47.50
74617;DHT22;63123;50.906;4.198;2023-04-03T05:59:15;16.70;47.90
74617;DHT22;63123;50.906;4.198;2023-04-03T06:01:40;16.70;48.00
74617;DHT22;63123;50.906;4.198;2023-04-03T06:04:07;16.70;47.70
74617;DHT22;63123;50.906;4.198;2023-04-03T06:06:51;16.70;47.70
74617;DHT22;63123;50.906;4.198;2023-04-03T06:09:22;16.70;47.40
74617;DHT22;63123;50.906;4.198;2023-04-03T06:11:48;16.70;47.40
74617;DHT22;63123;50.906;4.198;2023-04-03T06:14:14;16.70;47.60
74617;DHT22;63123;50.906;4.198;2023-04-03T06:16:40;16.70;47.70
74617;DHT22;63123;50.906;4.198;2023-04-03T06:19:07;16.70;47.60
74617;DHT22;63123;50.906;4.198;2023-04-03T06:21:33;16.70;47.60
74617;DHT22;63123;50.906;4.198;2023-04-03T06:23:58;16.70;47.70
74617;DHT22;63123;50.906;4.198;2023-04-03T06:26:24;16.70;47.60
74617;DHT22;63123;50.906;4.198;2023-04-03T06:28:49;16.70;47.80
74617;DHT22;63123;50.906;4.198;2023-04-03T06:31:15;16.70;47.90
74617;DHT22;63123;50.906;4.198;2023-04-03T06:33:41;16.70;47.70
74617;DHT22;63123;50.906;4.198;2023-04-03T06:36:07;16.70;47.90
74617;DHT22;63123;50.906;4.198;2023-04-03T06:38:34;16.70;47.80
74617;DHT22;63123;50.906;4.198;2023-04-03T06:41:00;16.70;47.80
74617;DHT22;63123;50.906;4.198;2023-04-03T06:43:26;16.70;47.70
74617;DHT22;63123;50.906;4.198;2023-04-03T06:45:52;16.70;47.80
74617;DHT22;63123;50.906;4.198;2023-04-03T06:48:17;16.70;47.70
74617;DHT22;63123;50.906;4.198;2023-04-03T06:50:43;16.70;47.80
74617;DHT22;63123;50.906;4.198;2023-04-03T06:53:09;16.70;48.10
74617;DHT22;63123;50.906;4.198;2023-04-03T06:55:35;16.70;48.00
74617;DHT22;63123;50.906;4.198;2023-04-03T06:58:01;16.70;48.10
74617;DHT22;63123;50.906;4.198;2023-04-03T07:00:26;16.70;47.90
74617;DHT22;63123;50.906;4.198;2023-04-03T07:02:53;16.70;48.10
74617;DHT22;63123;50.906;4.198;2023-04-03T07:05:18;16.70;48.00
74617;DHT22;63123;50.906;4.198;2023-04-03T07:07:44;16.70;47.90
74617;DHT22;63123;50.906;4.198;2023-04-03T07:10:10;16.70;47.90
74617;DHT22;63123;50.906;4.198;2023-04-03T07:12:36;16.70;47.80
74617;DHT22;63123;50.906;4.198;2023-04-03T07:15:04;16.70;47.90
74617;DHT22;63123;50.906;4.198;2023-04-03T07:17:30;16.70;47.80
74617;DHT22;63123;50.906;4.198;2023-04-03T07:19:55;16.70;47.90
74617;DHT22;63123;50.906;4.198;2023-04-03T07:22:21;16.70;47.90
74617;DHT22;63123;50.906;4.198;2023-04-03T07:24:46;16.70;48.00
74617;DHT22;63123;50.906;4.198;2023-04-03T07:27:12;16.70;48.10
74617;DHT22;63123;50.906;4.198;2023-04-03T07:29:38;16.70;48.10
74617;DHT22;63123;50.906;4.198;2023-04-03T07:32:05;16.70;48.10
74617;DHT22;63123;50.906;4.198;2023-04-03T07:34:31;16.70;48.20
74617;DHT22;63123;50.906;4.198;2023-04-03T07:36:58;16.70;48.00
74617;DHT22;63123;50.906;4.198;2023-04-03T07:39:24;16.70;48.10
74617;DHT22;63123;50.906;4.198;2023-04-03T07:41:50;16.70;48.60
74617;DHT22;63123;50.906;4.198;2023-04-03T07:44:15;16.70;48.90
74617;DHT22;63123;50.906;4.198;2023-04-03T07:46:41;16.70;48.60
74617;DHT22;63123;50.906;4.198;2023-04-03T07:49:07;16.70;48.70
74617;DHT22;63123;50.906;4.198;2023-04-03T07:51:33;16.70;48.80
74617;DHT22;63123;50.906;4.198;2023-04-03T07:53:59;16.70;48.80
74617;DHT22;63123;50.906;4.198;2023-04-03T07:56:25;16.70;48.90
74617;DHT22;63123;50.906;4.198;2023-04-03T07:58:51;16.70;49.10
74617;DHT22;63123;50.906;4.198;2023-04-03T08:01:17;16.80;48.90
74617;DHT22;63123;50.906;4.198;2023-04-03T08:03:42;16.70;48.80
74617;DHT22;63123;50.906;4.198;2023-04-03T08:06:09;16.80;49.10
74617;DHT22;63123;50.906;4.198;2023-04-03T08:08:34;16.70;49.30
74617;DHT22;63123;50.906;4.198;2023-04-03T08:11:01;16.80;49.10
74617;DHT22;63123;50.906;4.198;2023-04-03T08:13:28;16.70;49.00
74617;DHT22;63123;50.906;4.198;2023-04-03T08:15:54;16.80;48.70
74617;DHT22;63123;50.906;4.198;2023-04-03T08:18:19;16.80;48.80
74617;DHT22;63123;50.906;4.198;2023-04-03T08:20:47;16.70;48.60
74617;DHT22;63123;50.906;4.198;2023-04-03T08:23:13;16.80;49.00
74617;DHT22;63123;50.906;4.198;2023-04-03T08:25:42;16.70;48.50
74617;DHT22;63123;50.906;4.198;2023-04-03T08:28:10;16.80;48.60
74617;DHT22;63123;50.906;4.198;2023-04-03T08:30:39;16.80;48.90
74617;DHT22;63123;50.906;4.198;2023-04-03T08:33:05;16.80;48.40
74617;DHT22;63123;50.906;4.198;2023-04-03T08:35:31;16.80;48.80
74617;DHT22;63123;50.906;4.198;2023-04-03T08:37:57;16.80;48.70
74617;DHT22;63123;50.906;4.198;2023-04-03T08:40:23;16.80;48.60
74617;DHT22;63123;50.906;4.198;2023-04-03T08:43:18;16.80;48.20
74617;DHT22;63123;50.906;4.198;2023-04-03T08:45:55;16.80;48.30
74617;DHT22;63123;50.906;4.198;2023-04-03T08:48:26;16.90;48.30
74617;DHT22;63123;50.906;4.198;2023-04-03T08:51:02;16.90;48.20
74617;DHT22;63123;50.906;4.198;2023-04-03T08:53:34;16.90;48.30
74617;DHT22;63123;50.906;4.198;2023-04-03T08:56:08;16.90;48.80
74617;DHT22;63123;50.906;4.198;2023-04-03T08:59:03;16.90;48.80
74617;DHT22;63123;50.906;4.198;2023-04-03T09:01:34;16.90;48.20
74617;DHT22;63123;50.906;4.198;2023-04-03T09:04:08;16.90;48.20
74617;DHT22;63123;50.906;4.198;2023-04-03T09:06:36;16.90;48.50
74617;DHT22;63123;50.906;4.198;2023-04-03T09:09:24;17.00;48.40
74617;DHT22;63123;50.906;4.198;2023-04-03T09:17:46;17.00;47.80
74617;DHT22;63123;50.906;4.198;2023-04-03T09:22:55;17.00;47.90
74617;DHT22;63123;50.906;4.198;2023-04-03T09:27:53;17.10;48.10
74617;DHT22;63123;50.906;4.198;2023-04-03T09:30:24;17.10;48.00
74617;DHT22;63123;50.906;4.198;2023-04-03T09:32:52;17.10;48.00
74617;DHT22;63123;50.906;4.198;2023-04-03T09:35:29;17.10;48.00
74617;DHT22;63123;50.906;4.198;2023-04-03T09:42:53;17.20;48.00
74617;DHT22;63123;50.906;4.198;2023-04-03T09:45:33;17.20;48.00
74617;DHT22;63123;50.906;4.198;2023-04-03T09:50:52;17.30;47.50
74617;DHT22;63123;50.906;4.198;2023-04-03T09:53:39;17.40;48.60
74617;DHT22;63123;50.906;4.198;2023-04-03T09:56:28;17.40;49.10
74617;DHT22;63123;50.906;4.198;2023-04-03T10:01:33;17.60;50.10
74617;DHT22;63123;50.906;4.198;2023-04-03T10:06:33;18.30;48.00
74617;DHT22;63123;50.906;4.198;2023-04-03T10:09:13;17.90;47.60
74617;DHT22;63123;50.906;4.198;2023-04-03T10:11:58;17.70;48.60
74617;DHT22;63123;50.906;4.198;2023-04-03T10:14:24;17.60;47.30
74617;DHT22;63123;50.906;4.198;2023-04-03T10:17:02;17.50;47.40
74617;DHT22;63123;50.906;4.198;2023-04-03T10:22:22;17.50;47.10
74617;DHT22;63123;50.906;4.198;2023-04-03T10:25:12;17.40;47.50
74617;DHT22;63123;50.906;4.198;2023-04-03T10:27:53;17.40;46.80
74617;DHT22;63123;50.906;4.198;2023-04-03T10:30:47;17.40;46.90
74617;DHT22;63123;50.906;4.198;2023-04-03T10:33:33;17.40;46.60
74617;DHT22;63123;50.906;4.198;2023-04-03T10:36:36;17.40;47.40
74617;DHT22;63123;50.906;4.198;2023-04-03T10:44:31;17.40;46.80
74617;DHT22;63123;50.906;4.198;2023-04-03T10:53:03;17.30;46.90
74617;DHT22;63123;50.906;4.198;2023-04-03T10:58:24;17.40;47.10
74617;DHT22;63123;50.906;4.198;2023-04-03T11:00:53;17.30;47.30
74617;DHT22;63123;50.906;4.198;2023-04-03T11:03:47;17.20;47.30
74617;DHT22;63123;50.906;4.198;2023-04-03T11:06:15;17.20;46.60
74617;DHT22;63123;50.906;4.198;2023-04-03T11:08:56;17.20;46.90
74617;DHT22;63123;50.906;4.198;2023-04-03T11:11:29;17.20;46.60
74617;DHT22;63123;50.906;4.198;2023-04-03T11:14:01;17.10;46.70
74617;DHT22;63123;50.906;4.198;2023-04-03T11:16:31;17.10;46.50
74617;DHT22;63123;50.906;4.198;2023-04-03T11:19:18;17.10;46.20
74617;DHT22;63123;50.906;4.198;2023-04-03T11:24:42;17.10;46.10
74617;DHT22;63123;50.906;4.198;2023-04-03T11:27:16;17.10;46.50
74617;DHT22;63123;50.906;4.198;2023-04-03T11:29:45;17.10;46.80
74617;DHT22;63123;50.906;4.198;2023-04-03T11:32:17;17.10;46.10
74617;DHT22;63123;50.906;4.198;2023-04-03T11:34:53;17.10;46.10
74617;DHT22;63123;50.906;4.198;2023-04-03T11:43:03;17.10;46.70
74617;DHT22;63123;50.906;4.198;2023-04-03T11:50:47;17.00;46.50
74617;DHT22;63123;50.906;4.198;2023-04-03T12:00:56;17.10;46.60
74617;DHT22;63123;50.906;4.198;2023-04-03T12:05:49;17.00;46.40
74617;DHT22;63123;50.906;4.198;2023-04-03T12:08:30;17.00;46.10
74617;DHT22;63123;50.906;4.198;2023-04-03T12:16:28;17.00;46.10
74617;DHT22;63123;50.906;4.198;2023-04-03T12:40:21;17.00;46.10
74617;DHT22;63123;50.906;4.198;2023-04-03T12:48:56;17.00;45.10
74617;DHT22;63123;50.906;4.198;2023-04-03T12:51:34;17.00;45.70
74617;DHT22;63123;50.906;4.198;2023-04-03T12:54:16;17.00;45.50
74617;DHT22;63123;50.906;4.198;2023-04-03T12:56:43;17.00;45.50
74617;DHT22;63123;50.906;4.198;2023-04-03T12:59:20;17.00;45.40
74617;DHT22;63123;50.906;4.198;2023-04-03T13:01:54;17.00;45.60
74617;DHT22;63123;50.906;4.198;2023-04-03T13:04:20;17.00;45.20
74617;DHT22;63123;50.906;4.198;2023-04-03T13:06:46;17.00;44.90
74617;DHT22;63123;50.906;4.198;2023-04-03T13:09:30;17.00;45.10
74617;DHT22;63123;50.906;4.198;2023-04-03T13:12:18;17.00;45.00
74617;DHT22;63123;50.906;4.198;2023-04-03T13:14:55;17.00;44.80
74617;DHT22;63123;50.906;4.198;2023-04-03T13:17:21;17.00;44.80
74617;DHT22;63123;50.906;4.198;2023-04-03T13:19:48;17.00;45.00
74617;DHT22;63123;50.906;4.198;2023-04-03T13:22:34;17.00;45.10
74617;DHT22;63123;50.906;4.198;2023-04-03T13:25:07;17.00;44.70
74617;DHT22;63123;50.906;4.198;2023-04-03T13:27:34;17.00;45.90
74617;DHT22;63123;50.906;4.198;2023-04-03T13:30:01;17.00;44.90
74617;DHT22;63123;50.906;4.198;2023-04-03T13:32:30;16.90;45.00
74617;DHT22;63123;50.906;4.198;2023-04-03T13:34:57;16.90;44.50
74617;DHT22;63123;50.906;4.198;2023-04-03T13:37:29;17.00;44.80
74617;DHT22;63123;50.906;4.198;2023-04-03T13:42:26;17.00;44.70
74617;DHT22;63123;50.906;4.198;2023-04-03T13:47:42;17.00;44.20
74617;DHT22;63123;50.906;4.198;2023-04-03T13:55:33;17.00;44.20
74617;DHT22;63123;50.906;4.198;2023-04-03T14:00:47;17.00;44.40
74617;DHT22;63123;50.906;4.198;2023-04-03T14:03:22;17.00;44.70
74617;DHT22;63123;50.906;4.198;2023-04-03T14:05:47;17.00;44.40
74617;DHT22;63123;50.906;4.198;2023-04-03T14:08:13;17.00;44.80
74617;DHT22;63123;50.906;4.198;2023-04-03T14:10:39;17.00;44.10
74617;DHT22;63123;50.906;4.198;2023-04-03T14:13:05;17.00;44.20
74617;DHT22;63123;50.906;4.198;2023-04-03T14:15:32;17.00;45.10
74617;DHT22;63123;50.906;4.198;2023-04-03T14:17:57;17.00;44.30
74617;DHT22;63123;50.906;4.198;2023-04-03T14:20:25;17.00;44.60
74617;DHT22;63123;50.906;4.198;2023-04-03T14:22:52;17.00;44.20
74617;DHT22;63123;50.906;4.198;2023-04-03T14:25:20;17.00;44.20
74617;DHT22;63123;50.906;4.198;2023-04-03T14:27:48;17.00;44.50
74617;DHT22;63123;50.906;4.198;2023-04-03T14:30:22;17.00;44.50
74617;DHT22;63123;50.906;4.198;2023-04-03T14:32:49;17.00;44.50
74617;DHT22;63123;50.906;4.198;2023-04-03T14:35:16;17.00;44.30
74617;DHT22;63123;50.906;4.198;2023-04-03T14:37:42;17.00;44.40
74617;DHT22;63123;50.906;4.198;2023-04-03T14:40:11;17.00;44.60
74617;DHT22;63123;50.906;4.198;2023-04-03T14:42:38;17.00;44.20
74617;DHT22;63123;50.906;4.198;2023-04-03T14:45:07;16.90;45.40
74617;DHT22;63123;50.906;4.198;2023-04-03T14:47:37;17.00;45.10
74617;DHT22;63123;50.906;4.198;2023-04-03T14:50:06;17.00;45.00
74617;DHT22;63123;50.906;4.198;2023-04-03T14:52:35;17.00;44.70
74617;DHT22;63123;50.906;4.198;2023-04-03T14:55:02;17.00;44.00
74617;DHT22;63123;50.906;4.198;2023-04-03T14:57:28;17.00;44.40
74617;DHT22;63123;50.906;4.198;2023-04-03T14:59:54;17.00;44.20
74617;DHT22;63123;50.906;4.198;2023-04-03T15:02:37;17.00;44.70
74617;DHT22;63123;50.906;4.198;2023-04-03T15:05:05;17.00;44.10
74617;DHT22;63123;50.906;4.198;2023-04-03T15:07:57;17.00;44.50
74617;DHT22;63123;50.906;4.198;2023-04-03T15:10:26;17.00;44.70
74617;DHT22;63123;50.906;4.198;2023-04-03T15:12:52;17.00;44.30
74617;DHT22;63123;50.906;4.198;2023-04-03T15:15:20;17.00;44.00
74617;DHT22;63123;50.906;4.198;2023-04-03T15:17:47;17.00;44.00
74617;DHT22;63123;50.906;4.198;2023-04-03T15:20:19;17.00;44.00
74617;DHT22;63123;50.906;4.198;2023-04-03T15:22:45;17.00;43.80
74617;DHT22;63123;50.906;4.198;2023-04-03T15:25:11;17.00;44.00
74617;DHT22;63123;50.906;4.198;2023-04-03T15:27:37;17.00;43.30
74617;DHT22;63123;50.906;4.198;2023-04-03T15:30:04;17.00;44.00
74617;DHT22;63123;50.906;4.198;2023-04-03T15:32:31;17.00;43.30
74617;DHT22;63123;50.906;4.198;2023-04-03T15:34:57;17.00;44.10
74617;DHT22;63123;50.906;4.198;2023-04-03T15:37:22;17.00;43.00
74617;DHT22;63123;50.906;4.198;2023-04-03T15:39:48;17.00;43.20
74617;DHT22;63123;50.906;4.198;2023-04-03T15:42:13;17.00;43.30
74617;DHT22;63123;50.906;4.198;2023-04-03T15:44:39;17.00;43.70
74617;DHT22;63123;50.906;4.198;2023-04-03T15:47:05;17.00;43.50
74617;DHT22;63123;50.906;4.198;2023-04-03T15:49:32;17.00;44.00
74617;DHT22;63123;50.906;4.198;2023-04-03T15:51:58;17.00;44.30
74617;DHT22;63123;50.906;4.198;2023-04-03T15:54:24;17.00;43.00
74617;DHT22;63123;50.906;4.198;2023-04-03T15:56:50;17.00;43.40
74617;DHT22;63123;50.906;4.198;2023-04-03T15:59:16;17.00;43.30
74617;DHT22;63123;50.906;4.198;2023-04-03T16:01:42;17.00;43.10
74617;DHT22;63123;50.906;4.198;2023-04-03T16:04:08;17.00;43.70
74617;DHT22;63123;50.906;4.198;2023-04-03T16:06:35;17.00;43.70
74617;DHT22;63123;50.906;4.198;2023-04-03T16:09:01;17.00;44.00
74617;DHT22;63123;50.906;4.198;2023-04-03T16:11:26;16.90;42.80
74617;DHT22;63123;50.906;4.198;2023-04-03T16:13:53;17.00;43.70
74617;DHT22;63123;50.906;4.198;2023-04-03T16:16:19;17.00;42.80
74617;DHT22;63123;50.906;4.198;2023-04-03T16:18:45;17.00;43.10
74617;DHT22;63123;50.906;4.198;2023-04-03T16:21:12;16.90;42.70
74617;DHT22;63123;50.906;4.198;2023-04-03T16:23:40;16.90;42.80
74617;DHT22;63123;50.906;4.198;2023-04-03T16:26:06;16.90;43.40
74617;DHT22;63123;50.906;4.198;2023-04-03T16:28:31;16.90;43.00
74617;DHT22;63123;50.906;4.198;2023-04-03T16:30:57;16.90;43.10
74617;DHT22;63123;50.906;4.198;2023-04-03T16:33:23;16.90;43.10
74617;DHT22;63123;50.906;4.198;2023-04-03T16:35:50;16.90;43.40
74617;DHT22;63123;50.906;4.198;2023-04-03T16:38:16;17.00;43.90
74617;DHT22;63123;50.906;4.198;2023-04-03T16:40:41;17.00;43.20
74617;DHT22;63123;50.906;4.198;2023-04-03T16:43:08;17.00;43.30
74617;DHT22;63123;50.906;4.198;2023-04-03T16:45:33;16.90;42.90
74617;DHT22;63123;50.906;4.198;2023-04-03T16:47:59;16.90;43.20
74617;DHT22;63123;50.906;4.198;2023-04-03T16:50:25;16.90;43.40
74617;DHT22;63123;50.906;4.198;2023-04-03T16:52:50;16.90;42.70
74617;DHT22;63123;50.906;4.198;2023-04-03T16:55:16;16.90;43.70
74617;DHT22;63123;50.906;4.198;2023-04-03T16:57:42;17.00;43.50
74617;DHT22;63123;50.906;4.198;2023-04-03T17:00:08;16.90;42.80
74617;DHT22;63123;50.906;4.198;2023-04-03T17:02:33;16.90;43.30
74617;DHT22;63123;50.906;4.198;2023-04-03T17:04:59;16.90;43.20
74617;DHT22;63123;50.906;4.198;2023-04-03T17:07:25;16.90;43.10
74617;DHT22;63123;50.906;4.198;2023-04-03T17:09:51;16.90;43.30
74617;DHT22;63123;50.906;4.198;2023-04-03T17:12:19;16.90;43.60
74617;DHT22;63123;50.906;4.198;2023-04-03T17:14:45;16.90;43.00
74617;DHT22;63123;50.906;4.198;2023-04-03T17:17:12;16.90;43.20
74617;DHT22;63123;50.906;4.198;2023-04-03T17:19:39;16.90;42.80
74617;DHT22;63123;50.906;4.198;2023-04-03T17:22:06;16.90;43.30
74617;DHT22;63123;50.906;4.198;2023-04-03T17:24:32;16.90;43.10
74617;DHT22;63123;50.906;4.198;2023-04-03T17:26:58;16.90;43.70
74617;DHT22;63123;50.906;4.198;2023-04-03T17:29:24;16.90;43.70
74617;DHT22;63123;50.906;4.198;2023-04-03T17:31:49;16.90;43.60
74617;DHT22;63123;50.906;4.198;2023-04-03T17:34:15;16.90;43.50